createdAt,value
2023-05-02T00:01:20.971Z,99716.91
2023-05-02T00:03:48.527Z,99717.84
2023-05-02T00:06:15.765Z,99721.31
2023-05-02T00:08:42.889Z,99715.25
2023-05-02T00:11:09.965Z,99717.00
2023-05-02T00:13:37.059Z,99719.63
2023-05-02T00:16:04.347Z,99707.56
2023-05-02T00:18:31.381Z,99711.09
2023-05-02T00:20:58.457Z,99707.59
2023-05-02T00:23:25.537Z,99700.63
2023-05-02T00:25:52.593Z,99704.94
2023-05-02T00:28:19.605Z,99701.44
2023-05-02T00:30:47.287Z,99700.50
2023-05-02T00:33:15.226Z,99693.63
2023-05-02T00:35:42.743Z,99693.66
2023-05-02T00:38:09.938Z,99685.00
2023-05-02T00:40:48.400Z,99693.63
2023-05-02T00:43:16.343Z,99682.34
2023-05-02T00:45:44.418Z,99681.47
2023-05-02T00:48:11.786Z,99679.69
2023-05-02T00:50:42.323Z,99672.75
2023-05-02T00:53:10.778Z,99672.75
2023-05-02T00:55:37.863Z,99671.00
2023-05-02T00:58:12.183Z,99661.50
2023-05-02T01:00:48.884Z,99658.00
2023-05-02T01:03:40.400Z,99663.19
2023-05-02T01:06:30.418Z,99666.69
2023-05-02T01:09:17.756Z,99655.44
2023-05-02T01:11:54.070Z,99653.72
2023-05-02T01:14:22.036Z,99654.63
2023-05-02T01:16:50.081Z,99656.41
2023-05-02T01:19:35.580Z,99656.44
2023-05-02T01:22:11.087Z,99660.75
2023-05-02T01:24:46.181Z,99655.59
2023-05-02T01:27:27.851Z,99659.94
2023-05-02T01:29:55.480Z,99656.50
2023-05-02T01:32:24.378Z,99651.31
2023-05-02T01:34:53.050Z,99650.44
2023-05-02T01:37:20.411Z,99640.91
2023-05-02T01:39:48.863Z,99646.09
2023-05-02T01:42:17.085Z,99645.25
2023-05-02T01:44:45.533Z,99648.72
2023-05-02T01:47:13.107Z,99645.25
2023-05-02T01:49:41.421Z,99638.31
2023-05-02T01:52:12.038Z,99639.19
2023-05-02T01:54:39.712Z,99634.84
2023-05-02T01:57:08.233Z,99640.88
2023-05-02T01:59:37.476Z,99636.53
2023-05-02T02:02:05.884Z,99633.94
2023-05-02T02:04:33.183Z,99627.88
2023-05-02T02:07:04.056Z,99626.09
2023-05-02T02:09:31.671Z,99620.03
2023-05-02T02:12:12.925Z,99623.50
2023-05-02T02:14:43.346Z,99618.34
2023-05-02T02:17:15.957Z,99624.41
2023-05-02T02:19:43.247Z,99609.75
2023-05-02T02:22:10.944Z,99617.56
2023-05-02T02:24:39.760Z,99620.22
2023-05-02T02:27:06.739Z,99613.31
2023-05-02T02:29:34.260Z,99615.09
2023-05-02T02:32:01.369Z,99616.00
2023-05-02T02:34:29.090Z,99614.34
2023-05-02T02:37:01.005Z,99610.91
2023-05-02T02:39:36.295Z,99612.66
2023-05-02T02:42:09.483Z,99607.53
2023-05-02T02:44:56.347Z,99611.09
2023-05-02T02:47:39.676Z,99609.44
2023-05-02T02:50:21.286Z,99609.50
2023-05-02T02:53:02.650Z,99606.94
2023-05-02T02:55:40.080Z,99612.16
2023-05-02T02:58:22.406Z,99601.84
2023-05-02T03:00:50.647Z,99600.09
2023-05-02T03:03:18.526Z,99596.69
2023-05-02T03:05:46.450Z,99601.88
2023-05-02T03:08:14.801Z,99601.00
2023-05-02T03:10:42.152Z,99593.25
2023-05-02T03:13:11.499Z,99599.25
2023-05-02T03:15:54.308Z,99607.88
2023-05-02T03:18:28.382Z,99602.72
2023-05-02T03:20:55.838Z,99603.56
2023-05-02T03:23:23.165Z,99607.03
2023-05-02T03:25:52.728Z,99610.47
2023-05-02T03:28:23.470Z,99609.59
2023-05-02T03:30:52.050Z,99604.38
2023-05-02T03:33:21.355Z,99603.47
2023-05-02T03:35:48.798Z,99609.50
2023-05-02T03:38:15.908Z,99601.72
2023-05-02T03:40:45.636Z,99608.59
2023-05-02T03:43:13.288Z,99607.66
2023-05-02T03:45:41.046Z,99602.44
2023-05-02T03:48:08.706Z,99611.06
2023-05-02T03:50:37.834Z,99611.03
2023-05-02T03:53:05.876Z,99615.31
2023-05-02T03:55:42.617Z,99610.97
2023-05-02T03:58:15.112Z,99620.44
2023-05-02T04:00:42.586Z,99618.69
2023-05-02T04:03:09.788Z,99615.22
2023-05-02T04:05:41.120Z,99609.13
2023-05-02T04:08:10.680Z,99619.47
2023-05-02T04:10:37.994Z,99619.44
2023-05-02T04:13:08.715Z,99612.50
2023-05-02T04:15:38.564Z,99621.19
2023-05-02T04:18:08.138Z,99619.44
2023-05-02T04:20:37.262Z,99628.91
2023-05-02T04:23:04.383Z,99627.19
2023-05-02T04:25:32.168Z,99634.06
2023-05-02T04:28:02.732Z,99640.03
2023-05-02T04:30:31.477Z,99639.09
2023-05-02T04:33:09.134Z,99639.00
2023-05-02T04:35:41.114Z,99636.28
2023-05-02T04:38:10.781Z,99634.41
2023-05-02T04:40:38.551Z,99627.28
2023-05-02T04:43:07.773Z,99637.56
2023-05-02T04:45:51.864Z,99631.09
2023-05-02T04:48:27.543Z,99634.19
2023-05-02T04:50:54.702Z,99632.97
2023-05-02T04:53:22.823Z,99630.81
2023-05-02T04:55:50.291Z,99628.63
2023-05-02T04:58:17.849Z,99629.97
2023-05-02T05:00:49.172Z,99634.81
2023-05-02T05:03:16.364Z,99629.38
2023-05-02T05:05:43.613Z,99633.66
2023-05-02T05:08:14.790Z,99635.28
2023-05-02T05:10:42.005Z,99630.94
2023-05-02T05:13:09.879Z,99629.22
2023-05-02T05:15:38.251Z,99632.75
2023-05-02T05:18:05.530Z,99628.38
2023-05-02T05:20:33.776Z,99641.31
2023-05-02T05:23:02.721Z,99638.44
2023-05-02T05:25:30.257Z,99637.41
2023-05-02T05:28:00.310Z,99642.38
2023-05-02T05:30:28.262Z,99633.56
2023-05-02T05:32:55.916Z,99635.09
2023-05-02T05:35:24.479Z,99640.25
2023-05-02T05:37:52.204Z,99647.97
2023-05-02T05:40:19.438Z,99651.44
2023-05-02T05:42:51.131Z,99649.53
2023-05-02T05:45:24.183Z,99650.25
2023-05-02T05:47:51.954Z,99657.03
2023-05-02T05:50:19.398Z,99654.31
2023-05-02T05:52:47.132Z,99659.38
2023-05-02T05:55:14.962Z,99661.00
2023-05-02T05:57:42.598Z,99666.16
2023-05-02T06:00:11.261Z,99663.47
2023-05-02T06:02:47.651Z,99668.69
2023-05-02T06:05:24.614Z,99666.81
2023-05-02T06:07:51.861Z,99667.66
2023-05-02T06:10:18.980Z,99671.88
2023-05-02T06:12:47.292Z,99676.13
2023-05-02T06:15:17.919Z,99672.59
2023-05-02T06:17:45.096Z,99674.22
2023-05-02T06:20:12.488Z,99676.72
2023-05-02T06:22:40.326Z,99673.13
2023-05-02T06:25:09.085Z,99688.78
2023-05-02T06:27:36.197Z,99683.56
2023-05-02T06:30:04.095Z,99684.47
2023-05-02T06:32:32.449Z,99694.09
2023-05-02T06:34:59.618Z,99699.25
2023-05-02T06:37:26.685Z,99703.38
2023-05-02T06:39:53.704Z,99706.69
2023-05-02T06:42:20.973Z,99703.88
2023-05-02T06:44:48.060Z,99710.75
2023-05-02T06:47:15.234Z,99701.97
2023-05-02T06:49:42.332Z,99710.66
2023-05-02T06:52:09.446Z,99708.84
2023-05-02T06:54:36.484Z,99712.25
2023-05-02T06:57:03.735Z,99710.25
2023-05-02T06:59:30.960Z,99710.16
2023-05-02T07:01:58.105Z,99719.75
2023-05-02T07:04:25.918Z,99728.47
2023-05-02T07:06:53.340Z,99721.41
2023-05-02T07:09:21.690Z,99725.75
2023-05-02T07:11:49.876Z,99727.34
2023-05-02T07:14:16.911Z,99733.34
2023-05-02T07:16:43.956Z,99728.09
2023-05-02T07:19:11.073Z,99735.97
2023-05-02T07:21:38.129Z,99746.41
2023-05-02T07:24:05.485Z,99741.91
2023-05-02T07:26:32.542Z,99742.59
2023-05-02T07:28:59.653Z,99745.00
2023-05-02T07:31:26.770Z,99748.09
2023-05-02T07:33:53.870Z,99753.69
2023-05-02T07:36:21.204Z,99754.06
2023-05-02T07:38:48.326Z,99752.75
2023-05-02T07:41:15.455Z,99751.69
2023-05-02T07:43:42.565Z,99756.63
2023-05-02T07:46:09.714Z,99761.28
2023-05-02T07:48:36.915Z,99753.72
2023-05-02T07:51:08.296Z,99762.25
2023-05-02T07:53:35.686Z,99764.44
2023-05-02T07:56:09.106Z,99771.19
2023-05-02T07:58:37.342Z,99771.53
2023-05-02T08:01:04.924Z,99779.66
2023-05-02T08:03:32.123Z,99782.50
2023-05-02T08:05:59.404Z,99781.03
2023-05-02T08:08:26.704Z,99783.28
2023-05-02T08:10:53.948Z,99785.84
2023-05-02T08:13:21.287Z,99789.47
2023-05-02T08:15:48.429Z,99777.72
2023-05-02T08:18:15.663Z,99787.16
2023-05-02T08:20:43.747Z,99778.34
2023-05-02T08:23:10.899Z,99787.06
2023-05-02T08:25:38.276Z,99795.81
2023-05-02T08:28:05.840Z,99794.88
2023-05-02T08:30:32.836Z,99801.06
2023-05-02T08:33:00.032Z,99807.03
2023-05-02T08:35:30.229Z,99799.31
2023-05-02T08:37:57.538Z,99811.44
2023-05-02T08:40:37.853Z,99817.03
2023-05-02T08:43:08.013Z,99807.22
2023-05-02T08:45:39.498Z,99815.22
2023-05-02T08:48:15.613Z,99813.78
2023-05-02T08:50:46.855Z,99811.25
2023-05-02T08:53:14.925Z,99825.31
2023-05-02T08:55:42.780Z,99823.19
2023-05-02T08:58:12.096Z,99833.88
2023-05-02T09:00:42.765Z,99833.00
2023-05-02T09:03:24.076Z,99833.59
2023-05-02T09:05:54.727Z,99830.47
2023-05-02T09:08:25.581Z,99836.41
2023-05-02T09:10:52.832Z,99845.09
2023-05-02T09:13:30.937Z,99847.69
2023-05-02T09:16:09.762Z,99857.09
2023-05-02T09:18:44.612Z,99856.34
2023-05-02T09:21:16.248Z,99857.66
2023-05-02T09:23:47.597Z,99869.00
2023-05-02T09:26:44.299Z,99862.56
2023-05-02T09:29:11.549Z,99865.47
2023-05-02T09:34:16.874Z,99881.34
2023-05-02T09:36:54.356Z,99890.78
2023-05-02T09:39:31.706Z,99890.53
2023-05-02T09:41:59.528Z,99903.53
2023-05-02T09:44:28.056Z,99896.34
2023-05-02T09:46:57.776Z,99898.78
2023-05-02T09:49:45.376Z,99910.69
2023-05-02T09:52:14.757Z,99911.31
2023-05-02T09:54:42.082Z,99929.13
2023-05-02T09:57:11.353Z,99929.19
2023-05-02T09:59:42.271Z,99929.16
2023-05-02T10:02:11.766Z,99941.41
2023-05-02T10:04:39.423Z,99947.00
2023-05-02T10:07:10.710Z,99928.56
2023-05-02T10:09:43.655Z,99943.63
2023-05-02T10:12:15.562Z,99948.88
2023-05-02T10:14:44.261Z,99954.09
2023-05-02T10:17:23.911Z,99954.66
2023-05-02T10:19:57.151Z,99951.09
2023-05-02T10:22:25.253Z,99938.69
2023-05-02T10:24:53.635Z,99965.50
2023-05-02T10:27:20.884Z,99964.00
2023-05-02T10:29:48.062Z,99966.06
2023-05-02T10:32:17.085Z,99972.13
2023-05-02T10:34:44.558Z,99968.75
2023-05-02T10:37:12.128Z,99965.69
2023-05-02T10:39:39.269Z,99981.38
2023-05-02T10:42:07.212Z,99972.38
2023-05-02T10:44:39.892Z,99983.41
2023-05-02T10:47:26.958Z,99988.75
2023-05-02T10:49:55.518Z,99983.53
2023-05-02T10:52:34.480Z,99994.69
2023-05-02T10:55:22.061Z,99992.00
2023-05-02T10:57:58.642Z,100000.97
2023-05-02T11:00:30.329Z,99997.97
2023-05-02T11:02:57.905Z,100002.03
2023-05-02T11:05:26.572Z,100002.03
2023-05-02T11:08:30.415Z,100008.53
2023-05-02T11:10:57.527Z,100011.63
2023-05-02T11:13:51.402Z,100029.44
2023-05-02T11:16:18.567Z,100032.19
2023-05-02T11:19:01.142Z,100038.34
2023-05-02T11:21:30.082Z,100043.00
2023-05-02T11:24:40.639Z,100049.94
2023-05-02T11:27:30.964Z,100058.84
2023-05-02T11:29:58.873Z,100070.25
2023-05-02T11:32:46.056Z,100076.50
2023-05-02T11:35:18.677Z,100078.72
2023-05-02T11:38:00.686Z,100100.63
2023-05-02T11:40:28.611Z,100102.59
2023-05-02T11:42:58.835Z,100106.75
2023-05-02T11:45:40.596Z,100131.47
2023-05-02T11:48:08.473Z,100131.41
2023-05-02T11:51:07.398Z,100130.41
2023-05-02T11:53:34.932Z,100131.25
2023-05-02T11:56:04.845Z,100132.13
2023-05-02T11:58:33.917Z,100146.75
2023-05-02T12:01:15.745Z,100152.09
2023-05-02T12:03:43.157Z,100156.53
2023-05-02T12:06:11.916Z,100157.69
2023-05-02T12:08:40.675Z,100165.03
2023-05-02T12:11:07.983Z,100168.97
2023-05-02T12:13:35.303Z,100187.56
2023-05-02T12:16:02.805Z,100183.38
2023-05-02T12:18:29.971Z,100191.34
2023-05-02T12:20:57.449Z,100193.28
2023-05-02T12:23:26.579Z,100200.50
2023-05-02T12:25:53.858Z,100205.94
2023-05-02T12:28:21.441Z,100205.19
2023-05-02T12:30:50.681Z,100217.28
2023-05-02T12:33:18.748Z,100218.03
2023-05-02T12:35:47.726Z,100222.31
2023-05-02T12:38:20.664Z,100221.34
2023-05-02T12:40:57.839Z,100230.66
2023-05-02T12:43:25.199Z,100233.09
2023-05-02T12:46:09.930Z,100239.09
2023-05-02T12:48:37.005Z,100244.56
2023-05-02T12:51:04.210Z,100238.94
2023-05-02T12:53:46.061Z,100260.03
2023-05-02T12:56:13.841Z,100259.28
2023-05-02T12:58:45.443Z,100256.81
2023-05-02T13:01:13.797Z,100259.41
2023-05-02T13:03:41.506Z,100275.88
2023-05-02T13:06:08.763Z,100267.16
2023-05-02T13:08:37.268Z,100269.66
2023-05-02T13:11:04.689Z,100275.50
2023-05-02T13:13:32.847Z,100279.47
2023-05-02T13:16:00.139Z,100285.28
2023-05-02T13:18:28.461Z,100275.72
2023-05-02T13:20:55.830Z,100280.78
2023-05-02T13:23:22.940Z,100289.16
2023-05-02T13:25:50.128Z,100289.72
2023-05-02T13:28:17.164Z,100285.16
2023-05-02T13:30:44.239Z,100296.59
2023-05-02T13:33:11.324Z,100308.97
2023-05-02T13:35:38.395Z,100308.31
2023-05-02T13:38:05.499Z,100316.16
2023-05-02T13:40:32.525Z,100314.47
2023-05-02T13:42:59.577Z,100313.69
2023-05-02T13:45:26.682Z,100326.78
2023-05-02T13:47:53.716Z,100313.88
2023-05-02T13:50:21.339Z,100325.25
2023-05-02T13:52:49.328Z,100329.59
2023-05-02T13:55:16.591Z,100334.72
2023-05-02T13:57:43.868Z,100336.06
2023-05-02T14:00:11.685Z,100337.78
2023-05-02T14:02:39.455Z,100337.25
2023-05-02T14:05:07.555Z,100341.88
2023-05-02T14:07:34.830Z,100347.28
2023-05-02T14:10:02.156Z,100357.84
2023-05-02T14:12:29.411Z,100357.91
2023-05-02T14:14:56.537Z,100365.81
2023-05-02T14:17:25.363Z,100379.69
2023-05-02T14:19:52.533Z,100368.22
2023-05-02T14:22:19.657Z,100369.78
2023-05-02T14:24:46.841Z,100381.78
2023-05-02T14:27:18.383Z,100387.09
2023-05-02T14:29:46.348Z,100384.56
2023-05-02T14:32:13.968Z,100393.31
2023-05-02T14:34:42.108Z,100397.72
2023-05-02T14:37:09.402Z,100403.91
2023-05-02T14:39:37.518Z,100409.19
2023-05-02T14:42:04.784Z,100397.06
2023-05-02T14:44:32.248Z,100408.34
2023-05-02T14:46:59.749Z,100404.78
2023-05-02T14:49:27.892Z,100410.00
2023-05-02T14:51:56.393Z,100408.31
2023-05-02T14:54:30.809Z,100410.06
2023-05-02T14:56:59.790Z,100415.19
2023-05-02T14:59:30.866Z,100413.59
2023-05-02T15:01:58.174Z,100414.53
2023-05-02T15:04:27.396Z,100415.50
2023-05-02T15:06:55.684Z,100414.56
2023-05-02T15:09:23.534Z,100420.69
2023-05-02T15:11:50.535Z,100435.56
2023-05-02T15:14:17.589Z,100442.47
2023-05-02T15:16:45.173Z,100436.19
2023-05-02T15:19:12.245Z,100432.50
2023-05-02T15:21:40.083Z,100440.22
2023-05-02T15:24:07.519Z,100441.00
2023-05-02T15:26:34.617Z,100436.59
2023-05-02T15:29:02.417Z,100450.34
2023-05-02T15:31:29.476Z,100454.72
2023-05-02T15:33:56.609Z,100452.94
2023-05-02T15:36:27.831Z,100458.25
2023-05-02T15:38:55.294Z,100461.66
2023-05-02T15:41:22.391Z,100468.63
2023-05-02T15:43:49.488Z,100454.75
2023-05-02T15:46:16.666Z,100460.81
2023-05-02T15:48:43.731Z,100476.59
2023-05-02T15:51:11.063Z,100474.06
2023-05-02T15:53:42.516Z,100474.16
2023-05-02T15:56:10.324Z,100478.59
2023-05-02T15:58:37.960Z,100470.88
2023-05-02T16:01:05.273Z,100483.13
2023-05-02T16:03:34.374Z,100476.28
2023-05-02T16:06:01.724Z,100489.31
2023-05-02T16:08:29.115Z,100492.69
2023-05-02T16:10:56.602Z,100493.56
2023-05-02T16:13:23.838Z,100497.00
2023-05-02T16:15:53.759Z,100504.88
2023-05-02T16:18:20.981Z,100507.63
2023-05-02T16:20:50.031Z,100510.28
2023-05-02T16:23:18.103Z,100511.25
2023-05-02T16:25:46.686Z,100520.88
2023-05-02T16:28:14.643Z,100513.94
2023-05-02T16:30:41.967Z,100516.56
2023-05-02T16:33:09.094Z,100513.09
2023-05-02T16:35:36.180Z,100510.47
2023-05-02T16:38:04.264Z,100515.69
2023-05-02T16:40:31.451Z,100517.47
2023-05-02T16:42:59.738Z,100524.41
2023-05-02T16:45:26.932Z,100527.97
2023-05-02T16:47:54.109Z,100531.44
2023-05-02T16:50:21.515Z,100528.88
2023-05-02T16:52:48.504Z,100527.16
2023-05-02T16:55:16.854Z,100528.91
2023-05-02T16:57:44.082Z,100528.94
2023-05-02T17:00:14.941Z,100533.25
2023-05-02T17:02:43.366Z,100532.38
2023-05-02T17:05:11.423Z,100536.72
2023-05-02T17:07:38.597Z,100541.97
2023-05-02T17:10:06.163Z,100543.69
2023-05-02T17:12:33.518Z,100544.56
2023-05-02T17:15:02.292Z,100557.56
2023-05-02T17:17:31.518Z,100552.38
2023-05-02T17:19:58.567Z,100556.72
2023-05-02T17:22:26.510Z,100552.38
2023-05-02T17:24:54.858Z,100556.72
2023-05-02T17:27:22.089Z,100556.69
2023-05-02T17:29:49.107Z,100552.38
2023-05-02T17:32:16.424Z,100561.06
2023-05-02T17:34:43.690Z,100558.41
2023-05-02T17:37:11.085Z,100561.88
2023-05-02T17:39:38.099Z,100567.97
2023-05-02T17:42:05.334Z,100560.13
2023-05-02T17:44:35.467Z,100567.03
2023-05-02T17:47:03.385Z,100569.63
2023-05-02T17:49:30.602Z,100572.19
2023-05-02T17:51:57.622Z,100569.56
2023-05-02T17:54:24.778Z,100573.84
2023-05-02T17:56:52.485Z,100580.75
2023-05-02T17:59:20.799Z,100583.31
2023-05-02T18:01:48.010Z,100579.81
2023-05-02T18:04:16.400Z,100583.22
2023-05-02T18:06:43.534Z,100593.53
2023-05-02T18:09:10.548Z,100591.78
2023-05-02T18:11:37.848Z,100589.97
2023-05-02T18:14:06.340Z,100591.63
2023-05-02T18:16:34.677Z,100597.66
2023-05-02T18:19:02.214Z,100611.44
2023-05-02T18:21:29.515Z,100616.56
2023-05-02T18:23:59.476Z,100613.03
2023-05-02T18:26:26.988Z,100612.97
2023-05-02T18:28:54.038Z,100618.91
2023-05-02T18:31:21.646Z,100625.78
2023-05-02T18:33:49.666Z,100626.56
2023-05-02T18:36:21.757Z,100627.34
2023-05-02T18:38:49.620Z,100637.66
2023-05-02T18:41:17.737Z,100641.00
2023-05-02T18:43:44.776Z,100641.78
2023-05-02T18:46:12.394Z,100639.94
2023-05-02T18:48:39.547Z,100638.16
2023-05-02T18:51:06.720Z,100645.84
2023-05-02T18:53:33.749Z,100643.16
2023-05-02T18:56:00.898Z,100651.75
2023-05-02T18:58:28.053Z,100651.66
2023-05-02T19:00:55.157Z,100653.31
2023-05-02T19:03:22.400Z,100648.03
2023-05-02T19:05:51.489Z,100667.78
2023-05-02T19:08:18.569Z,100653.84
2023-05-02T19:10:45.670Z,100658.06
2023-05-02T19:13:12.702Z,100658.91
2023-05-02T19:15:41.139Z,100656.25
2023-05-02T19:18:09.008Z,100663.06
2023-05-02T19:20:36.063Z,100663.88
2023-05-02T19:23:18.856Z,100662.91
2023-05-02T19:25:47.723Z,100665.41
2023-05-02T19:28:17.007Z,100667.88
2023-05-02T19:30:45.843Z,100666.06
2023-05-02T19:33:13.027Z,100676.31
2023-05-02T19:35:40.704Z,100679.63
2023-05-02T19:38:07.760Z,100683.81
2023-05-02T19:40:34.818Z,100675.91
2023-05-02T19:43:02.070Z,100679.19
2023-05-02T19:45:29.246Z,100687.75
2023-05-02T19:47:56.626Z,100686.75
2023-05-02T19:50:26.005Z,100689.19
2023-05-02T19:52:52.982Z,100695.03
2023-05-02T19:55:21.017Z,100702.66
2023-05-02T19:57:48.995Z,100695.56
2023-05-02T20:00:16.311Z,100698.03
2023-05-02T20:02:44.878Z,100698.78
2023-05-02T20:05:12.360Z,100694.34
2023-05-02T20:07:39.405Z,100698.56
2023-05-02T20:10:08.513Z,100704.47
2023-05-02T20:12:36.847Z,100707.69
2023-05-02T20:15:04.381Z,100704.84
2023-05-02T20:17:32.532Z,100708.91
2023-05-02T20:20:00.635Z,100716.44
2023-05-02T20:22:29.680Z,100715.34
2023-05-02T20:24:58.469Z,100717.75
2023-05-02T20:27:26.896Z,100719.31
2023-05-02T20:29:54.424Z,100721.59
2023-05-02T20:32:22.131Z,100725.63
2023-05-02T20:34:49.360Z,100734.97
2023-05-02T20:37:16.386Z,100730.59
2023-05-02T20:39:43.506Z,100728.69
2023-05-02T20:42:11.729Z,100730.25
2023-05-02T20:44:39.377Z,100731.78
2023-05-02T20:47:07.393Z,100734.28
2023-05-02T20:49:34.634Z,100732.41
2023-05-02T20:52:06.180Z,100740.84
2023-05-02T20:54:33.649Z,100733.94
2023-05-02T20:57:00.998Z,100731.28
2023-05-02T20:59:28.648Z,100738.06
2023-05-02T21:01:56.757Z,100743.97
2023-05-02T21:04:24.368Z,100741.19
2023-05-02T21:06:53.418Z,100746.97
2023-05-02T21:09:20.592Z,100748.66
2023-05-02T21:11:48.127Z,100749.41
2023-05-02T21:14:16.627Z,100751.03
2023-05-02T21:16:43.815Z,100744.88
2023-05-02T21:19:11.021Z,100753.25
2023-05-02T21:21:38.072Z,100757.34
2023-05-02T21:24:05.660Z,100754.69
2023-05-02T21:26:32.702Z,100749.41
2023-05-02T21:29:00.300Z,100747.59
2023-05-02T21:31:27.372Z,100751.66
2023-05-02T21:33:54.724Z,100752.31
2023-05-02T21:36:21.739Z,100752.19
2023-05-02T21:38:48.951Z,100755.50
2023-05-02T21:41:16.003Z,100758.03
2023-05-02T21:43:43.185Z,100761.38
2023-05-02T21:46:14.171Z,100757.91
2023-05-02T21:48:42.116Z,100758.75
2023-05-02T21:51:11.579Z,100759.53
2023-05-02T21:53:38.696Z,100762.72
2023-05-02T21:56:09.832Z,100764.38
2023-05-02T21:58:37.044Z,100764.28
2023-05-02T22:01:04.727Z,100758.94
2023-05-02T22:03:45.794Z,100769.03
2023-05-02T22:06:12.985Z,100758.66
2023-05-02T22:08:40.385Z,100761.03
2023-05-02T22:11:09.563Z,100763.50
2023-05-02T22:13:37.093Z,100761.75
2023-05-02T22:16:04.627Z,100770.31
2023-05-02T22:18:31.709Z,100767.63
2023-05-02T22:20:58.855Z,100769.19
2023-05-02T22:23:26.013Z,100765.72
2023-05-02T22:25:53.218Z,100769.13
2023-05-02T22:28:20.598Z,100769.94
2023-05-02T22:30:47.687Z,100768.16
2023-05-02T22:33:14.767Z,100769.13
2023-05-02T22:35:42.291Z,100769.94
2023-05-02T22:38:09.375Z,100764.72
2023-05-02T22:40:36.478Z,100770.69
2023-05-02T22:43:03.645Z,100770.63
2023-05-02T22:45:30.778Z,100767.09
2023-05-02T22:47:57.921Z,100769.63
2023-05-02T22:50:26.395Z,100763.59
2023-05-02T22:52:57.338Z,100773.91
2023-05-02T22:55:24.908Z,100767.75
2023-05-02T22:57:52.267Z,100775.38
2023-05-02T23:00:19.727Z,100762.38
2023-05-02T23:02:46.815Z,100763.13
2023-05-02T23:05:14.477Z,100764.78
2023-05-02T23:07:41.619Z,100767.22
2023-05-02T23:10:09.679Z,100770.63
2023-05-02T23:12:36.662Z,100763.75
2023-05-02T23:15:03.953Z,100770.63
2023-05-02T23:17:31.009Z,100769.72
2023-05-02T23:19:58.699Z,100772.25
2023-05-02T23:22:25.758Z,100773.03
2023-05-02T23:24:53.140Z,100773.81
2023-05-02T23:27:20.346Z,100771.94
2023-05-02T23:29:49.182Z,100767.50
2023-05-02T23:32:16.656Z,100771.63
2023-05-02T23:34:44.073Z,100766.38
2023-05-02T23:37:11.735Z,100765.38
2023-05-02T23:39:38.876Z,100760.16
2023-05-02T23:42:06.268Z,100764.31
2023-05-02T23:44:33.353Z,100759.84
2023-05-02T23:47:00.684Z,100766.66
2023-05-02T23:49:27.988Z,100765.66
2023-05-02T23:51:55.006Z,100767.25
2023-05-02T23:54:22.015Z,100772.22
2023-05-02T23:56:49.157Z,100767.84
2023-05-02T23:59:16.234Z,100760.84
